sensor_id;sensor_type;location;lat;lon;timestamp;pressure;altitude;pressure_sealevel;temperature
64600;BMP280;6553;48.412;9.514;2023-10-31T00:01:51;71739.47;;;20.57
64600;BMP280;6553;48.412;9.514;2023-10-31T00:04:17;71735.75;;;20.53
64600;BMP280;6553;48.412;9.514;2023-10-31T00:06:43;71737.88;;;20.55
64600;BMP280;6553;48.412;9.514;2023-10-31T00:09:09;71740.13;;;20.54
64600;BMP280;6553;48.412;9.514;2023-10-31T00:11:36;71739.47;;;20.57
64600;BMP280;6553;48.412;9.514;2023-10-31T00:14:03;71741.31;;;20.53
64600;BMP280;6553;48.412;9.514;2023-10-31T00:16:29;71732.69;;;20.47
64600;BMP280;6553;48.412;9.514;2023-10-31T00:18:55;71738.94;;;20.56
64600;BMP280;6553;48.412;9.514;2023-10-31T00:21:21;71737.88;;;20.55
64600;BMP280;6553;48.412;9.514;2023-10-31T00:23:48;71738.41;;;20.55
64600;BMP280;6553;48.412;9.514;2023-10-31T00:26:15;71738.41;;;20.55
64600;BMP280;6553;48.412;9.514;2023-10-31T00:28:48;71736.94;;;20.51
64600;BMP280;6553;48.412;9.514;2023-10-31T00:31:14;71743.44;;;20.55
64600;BMP280;6553;48.412;9.514;2023-10-31T00:33:40;71736.81;;;20.54
64600;BMP280;6553;48.412;9.514;2023-10-31T00:36:07;71738.41;;;20.55
64600;BMP280;6553;48.412;9.514;2023-10-31T00:38:33;71734.16;;;20.51
64600;BMP280;6553;48.412;9.514;2023-10-31T00:40:59;71734.69;;;20.52
64600;BMP280;6553;48.412;9.514;2023-10-31T00:43:25;71736.94;;;20.51
64600;BMP280;6553;48.412;9.514;2023-10-31T00:45:50;71740.78;;;20.52
64600;BMP280;6553;48.412;9.514;2023-10-31T00:48:16;71740.13;;;20.54
64600;BMP280;6553;48.412;9.514;2023-10-31T00:50:43;71739.59;;;20.54
64600;BMP280;6553;48.412;9.514;2023-10-31T00:53:10;71735.75;;;20.53
64600;BMP280;6553;48.412;9.514;2023-10-31T00:55:36;71740.78;;;20.52
64600;BMP280;6553;48.412;9.514;2023-10-31T00:58:01;71740.66;;;20.55
64600;BMP280;6553;48.412;9.514;2023-10-31T01:00:27;71737.34;;;20.54
64600;BMP280;6553;48.412;9.514;2023-10-31T01:02:53;71738.66;;;20.50
64600;BMP280;6553;48.412;9.514;2023-10-31T01:05:19;71743.44;;;20.55
64600;BMP280;6553;48.412;9.514;2023-10-31T01:07:45;71736.28;;;20.53
64600;BMP280;6553;48.412;9.514;2023-10-31T01:10:10;71741.81;;;20.53
64600;BMP280;6553;48.412;9.514;2023-10-31T01:12:37;71736.28;;;20.53
64600;BMP280;6553;48.412;9.514;2023-10-31T01:15:03;71736.81;;;20.54
64600;BMP280;6553;48.412;9.514;2023-10-31T01:17:29;71735.22;;;20.52
64600;BMP280;6553;48.412;9.514;2023-10-31T01:19:55;71735.44;;;20.47
64600;BMP280;6553;48.412;9.514;2023-10-31T01:22:20;71738.00;;;20.52
64600;BMP280;6553;48.412;9.514;2023-10-31T01:24:46;71731.91;;;20.52
64600;BMP280;6553;48.412;9.514;2023-10-31T01:27:12;71735.22;;;20.52
64600;BMP280;6553;48.412;9.514;2023-10-31T01:29:38;71735.22;;;20.52
64600;BMP280;6553;48.412;9.514;2023-10-31T01:32:04;71740.25;;;20.52
64600;BMP280;6553;48.412;9.514;2023-10-31T01:34:30;71738.00;;;20.52
64600;BMP280;6553;48.412;9.514;2023-10-31T01:36:56;71735.88;;;20.50
64600;BMP280;6553;48.412;9.514;2023-10-31T01:39:21;71736.41;;;20.51
64600;BMP280;6553;48.412;9.514;2023-10-31T01:41:47;71735.22;;;20.52
64600;BMP280;6553;48.412;9.514;2023-10-31T01:44:14;71738.00;;;20.52
64600;BMP280;6553;48.412;9.514;2023-10-31T01:46:40;71738.00;;;20.52
64600;BMP280;6553;48.412;9.514;2023-10-31T01:49:06;71734.69;;;20.52
64600;BMP280;6553;48.412;9.514;2023-10-31T01:51:32;71733.63;;;20.51
64600;BMP280;6553;48.412;9.514;2023-10-31T01:53:58;71732.44;;;20.52
64600;BMP280;6553;48.412;9.514;2023-10-31T01:56:25;71734.41;;;20.46
64600;BMP280;6553;48.412;9.514;2023-10-31T01:58:52;71736.41;;;20.51
64600;BMP280;6553;48.412;9.514;2023-10-31T02:01:19;71733.22;;;20.48
64600;BMP280;6553;48.412;9.514;2023-10-31T02:03:45;71736.94;;;20.51
64600;BMP280;6553;48.412;9.514;2023-10-31T02:06:11;71739.19;;;20.51
64600;BMP280;6553;48.412;9.514;2023-10-31T02:08:37;71735.22;;;20.52
64600;BMP280;6553;48.412;9.514;2023-10-31T02:11:03;71734.16;;;20.51
64600;BMP280;6553;48.412;9.514;2023-10-31T02:13:31;71734.69;;;20.52
64600;BMP280;6553;48.412;9.514;2023-10-31T02:15:57;71735.22;;;20.52
64600;BMP280;6553;48.412;9.514;2023-10-31T02:18:23;71737.47;;;20.52
64600;BMP280;6553;48.412;9.514;2023-10-31T02:20:49;71734.16;;;20.51
64600;BMP280;6553;48.412;9.514;2023-10-31T02:23:18;71733.63;;;20.51
64600;BMP280;6553;48.412;9.514;2023-10-31T02:25:43;71732.06;;;20.49
64600;BMP280;6553;48.412;9.514;2023-10-31T02:28:09;71732.44;;;20.52
64600;BMP280;6553;48.412;9.514;2023-10-31T02:30:35;71732.06;;;20.49
64600;BMP280;6553;48.412;9.514;2023-10-31T02:33:02;71731.50;;;20.49
64600;BMP280;6553;48.412;9.514;2023-10-31T02:35:28;71731.50;;;20.49
64600;BMP280;6553;48.412;9.514;2023-10-31T02:37:54;71727.66;;;20.48
64600;BMP280;6553;48.412;9.514;2023-10-31T02:40:20;71728.34;;;20.46
64600;BMP280;6553;48.412;9.514;2023-10-31T02:42:46;71734.69;;;20.52
64600;BMP280;6553;48.412;9.514;2023-10-31T02:45:12;71735.22;;;20.52
64600;BMP280;6553;48.412;9.514;2023-10-31T02:47:37;71735.34;;;20.50
64600;BMP280;6553;48.412;9.514;2023-10-31T02:50:04;71736.94;;;20.51
64600;BMP280;6553;48.412;9.514;2023-10-31T02:52:29;71730.03;;;20.45
64600;BMP280;6553;48.412;9.514;2023-10-31T02:54:55;71730.97;;;20.48
64600;BMP280;6553;48.412;9.514;2023-10-31T02:57:21;71721.94;;;20.40
64600;BMP280;6553;48.412;9.514;2023-10-31T02:59:47;71730.97;;;20.48
64600;BMP280;6553;48.412;9.514;2023-10-31T03:02:12;71730.97;;;20.48
64600;BMP280;6553;48.412;9.514;2023-10-31T03:04:38;71733.09;;;20.50
64600;BMP280;6553;48.412;9.514;2023-10-31T03:07:04;71735.88;;;20.50
64600;BMP280;6553;48.412;9.514;2023-10-31T03:09:30;71737.06;;;20.49
64600;BMP280;6553;48.412;9.514;2023-10-31T03:11:56;71735.44;;;20.47
64600;BMP280;6553;48.412;9.514;2023-10-31T03:14:21;71730.44;;;20.48
64600;BMP280;6553;48.412;9.514;2023-10-31T03:16:47;71728.75;;;20.49
64600;BMP280;6553;48.412;9.514;2023-10-31T03:19:13;71730.88;;;20.51
64600;BMP280;6553;48.412;9.514;2023-10-31T03:21:38;71734.81;;;20.49
64600;BMP280;6553;48.412;9.514;2023-10-31T03:24:05;71732.06;;;20.49
64600;BMP280;6553;48.412;9.514;2023-10-31T03:26:31;71730.97;;;20.48
64600;BMP280;6553;48.412;9.514;2023-10-31T03:28:56;71732.56;;;20.50
64600;BMP280;6553;48.412;9.514;2023-10-31T03:31:23;71732.06;;;20.49
64600;BMP280;6553;48.412;9.514;2023-10-31T03:33:49;71734.28;;;20.49
64600;BMP280;6553;48.412;9.514;2023-10-31T03:36:15;71728.84;;;20.46
64600;BMP280;6553;48.412;9.514;2023-10-31T03:38:41;71732.56;;;20.50
64600;BMP280;6553;48.412;9.514;2023-10-31T03:41:08;71733.75;;;20.48
64600;BMP280;6553;48.412;9.514;2023-10-31T03:43:33;71734.41;;;20.46
64600;BMP280;6553;48.412;9.514;2023-10-31T03:46:00;71728.34;;;20.46
64600;BMP280;6553;48.412;9.514;2023-10-31T03:48:26;71731.63;;;20.46
64600;BMP280;6553;48.412;9.514;2023-10-31T03:50:52;71731.50;;;20.49
64600;BMP280;6553;48.412;9.514;2023-10-31T03:53:18;71730.44;;;20.48
64600;BMP280;6553;48.412;9.514;2023-10-31T03:55:44;71733.22;;;20.48
64600;BMP280;6553;48.412;9.514;2023-10-31T03:58:10;71727.78;;;20.45
64600;BMP280;6553;48.412;9.514;2023-10-31T04:00:36;71733.75;;;20.48
64600;BMP280;6553;48.412;9.514;2023-10-31T04:03:04;71727.13;;;20.47
64600;BMP280;6553;48.412;9.514;2023-10-31T04:05:30;71729.91;;;20.47
64600;BMP280;6553;48.412;9.514;2023-10-31T04:07:55;71730.97;;;20.48
64600;BMP280;6553;48.412;9.514;2023-10-31T04:10:21;71731.50;;;20.49
64600;BMP280;6553;48.412;9.514;2023-10-31T04:12:48;71724.91;;;20.48
64600;BMP280;6553;48.412;9.514;2023-10-31T04:15:13;71731.50;;;20.49
64600;BMP280;6553;48.412;9.514;2023-10-31T04:17:40;71734.81;;;20.49
64600;BMP280;6553;48.412;9.514;2023-10-31T04:20:06;71735.44;;;20.47
64600;BMP280;6553;48.412;9.514;2023-10-31T04:22:32;71731.09;;;20.46
64600;BMP280;6553;48.412;9.514;2023-10-31T04:24:58;71726.72;;;20.44
64600;BMP280;6553;48.412;9.514;2023-10-31T04:27:24;71727.25;;;20.45
64600;BMP280;6553;48.412;9.514;2023-10-31T04:29:49;71732.28;;;20.44
64600;BMP280;6553;48.412;9.514;2023-10-31T04:32:15;71730.56;;;20.45
64600;BMP280;6553;48.412;9.514;2023-10-31T04:34:41;71729.50;;;20.44
64600;BMP280;6553;48.412;9.514;2023-10-31T04:37:07;71731.19;;;20.43
64600;BMP280;6553;48.412;9.514;2023-10-31T04:39:32;71724.09;;;20.42
64600;BMP280;6553;48.412;9.514;2023-10-31T04:41:58;71726.84;;;20.42
64600;BMP280;6553;48.412;9.514;2023-10-31T04:44:24;71713.75;;;20.37
64600;BMP280;6553;48.412;9.514;2023-10-31T04:46:50;71733.22;;;20.48
64600;BMP280;6553;48.412;9.514;2023-10-31T04:49:15;71735.44;;;20.47
64600;BMP280;6553;48.412;9.514;2023-10-31T04:51:42;71729.38;;;20.47
64600;BMP280;6553;48.412;9.514;2023-10-31T04:54:07;71733.75;;;20.48
64600;BMP280;6553;48.412;9.514;2023-10-31T04:56:33;71737.06;;;20.49
64600;BMP280;6553;48.412;9.514;2023-10-31T04:58:59;71726.63;;;20.47
64600;BMP280;6553;48.412;9.514;2023-10-31T05:01:25;71728.84;;;20.46
64600;BMP280;6553;48.412;9.514;2023-10-31T05:03:51;71726.19;;;20.44
64600;BMP280;6553;48.412;9.514;2023-10-31T05:06:22;71732.69;;;20.47
64600;BMP280;6553;48.412;9.514;2023-10-31T05:08:48;71733.22;;;20.48
64600;BMP280;6553;48.412;9.514;2023-10-31T05:11:17;71730.44;;;20.48
64600;BMP280;6553;48.412;9.514;2023-10-31T05:13:44;71727.78;;;20.45
64600;BMP280;6553;48.412;9.514;2023-10-31T05:16:10;71724.09;;;20.42
64600;BMP280;6553;48.412;9.514;2023-10-31T05:18:38;71728.34;;;20.46
64600;BMP280;6553;48.412;9.514;2023-10-31T05:21:05;71725.03;;;20.45
64600;BMP280;6553;48.412;9.514;2023-10-31T05:23:31;71733.34;;;20.45
64600;BMP280;6553;48.412;9.514;2023-10-31T05:25:56;71730.03;;;20.45
64600;BMP280;6553;48.412;9.514;2023-10-31T05:28:22;71722.78;;;20.46
64600;BMP280;6553;48.412;9.514;2023-10-31T05:30:49;71728.84;;;20.46
64600;BMP280;6553;48.412;9.514;2023-10-31T05:33:15;71728.84;;;20.46
64600;BMP280;6553;48.412;9.514;2023-10-31T05:35:42;71733.75;;;20.48
64600;BMP280;6553;48.412;9.514;2023-10-31T05:38:08;71727.25;;;20.45
64600;BMP280;6553;48.412;9.514;2023-10-31T05:40:34;71726.72;;;20.44
64600;BMP280;6553;48.412;9.514;2023-10-31T05:43:03;71733.88;;;20.46
64600;BMP280;6553;48.412;9.514;2023-10-31T05:45:30;71723.94;;;20.44
64600;BMP280;6553;48.412;9.514;2023-10-31T05:47:56;71728.84;;;20.46
64600;BMP280;6553;48.412;9.514;2023-10-31T05:50:21;71725.13;;;20.43
64600;BMP280;6553;48.412;9.514;2023-10-31T05:52:47;71719.06;;;20.42
64600;BMP280;6553;48.412;9.514;2023-10-31T05:55:13;71721.72;;;20.45
64600;BMP280;6553;48.412;9.514;2023-10-31T05:57:39;71731.72;;;20.44
64600;BMP280;6553;48.412;9.514;2023-10-31T06:00:06;71728.84;;;20.46
64600;BMP280;6553;48.412;9.514;2023-10-31T06:02:37;71726.72;;;20.44
64600;BMP280;6553;48.412;9.514;2023-10-31T06:05:04;71725.03;;;20.45
64600;BMP280;6553;48.412;9.514;2023-10-31T06:07:30;71738.34;;;20.45
64600;BMP280;6553;48.412;9.514;2023-10-31T06:09:56;71725.66;;;20.43
64600;BMP280;6553;48.412;9.514;2023-10-31T06:12:21;71722.88;;;20.43
64600;BMP280;6553;48.412;9.514;2023-10-31T06:14:47;71729.50;;;20.44
64600;BMP280;6553;48.412;9.514;2023-10-31T06:17:13;71726.72;;;20.44
64600;BMP280;6553;48.412;9.514;2023-10-31T06:19:39;71728.03;;;20.40
64600;BMP280;6553;48.412;9.514;2023-10-31T06:22:11;71724.63;;;20.42
64600;BMP280;6553;48.412;9.514;2023-10-31T06:24:37;71725.78;;;20.41
64600;BMP280;6553;48.412;9.514;2023-10-31T06:27:03;71726.84;;;20.42
64600;BMP280;6553;48.412;9.514;2023-10-31T06:29:29;71729.09;;;20.41
64600;BMP280;6553;48.412;9.514;2023-10-31T06:31:55;71724.09;;;20.42
64600;BMP280;6553;48.412;9.514;2023-10-31T06:34:20;71725.78;;;20.41
64600;BMP280;6553;48.412;9.514;2023-10-31T06:36:46;71722.47;;;20.40
64600;BMP280;6553;48.412;9.514;2023-10-31T06:39:12;71728.97;;;20.44
64600;BMP280;6553;48.412;9.514;2023-10-31T06:41:38;71726.19;;;20.44
64600;BMP280;6553;48.412;9.514;2023-10-31T06:44:04;71726.84;;;20.42
64600;BMP280;6553;48.412;9.514;2023-10-31T06:46:29;71726.72;;;20.44
64600;BMP280;6553;48.412;9.514;2023-10-31T06:48:55;71730.16;;;20.42
64600;BMP280;6553;48.412;9.514;2023-10-31T06:51:21;71719.59;;;20.43
64600;BMP280;6553;48.412;9.514;2023-10-31T06:53:47;71722.47;;;20.40
64600;BMP280;6553;48.412;9.514;2023-10-31T06:56:12;71727.91;;;20.43
64600;BMP280;6553;48.412;9.514;2023-10-31T06:58:38;71720.88;;;20.39
64600;BMP280;6553;48.412;9.514;2023-10-31T07:01:04;71731.19;;;20.43
64600;BMP280;6553;48.412;9.514;2023-10-31T07:03:30;71721.31;;;20.42
64600;BMP280;6553;48.412;9.514;2023-10-31T07:05:55;71726.84;;;20.42
64600;BMP280;6553;48.412;9.514;2023-10-31T07:08:22;71721.94;;;20.40
64600;BMP280;6553;48.412;9.514;2023-10-31T07:10:49;71725.13;;;20.43
64600;BMP280;6553;48.412;9.514;2023-10-31T07:13:14;71732.94;;;20.42
64600;BMP280;6553;48.412;9.514;2023-10-31T07:15:40;71719.16;;;20.40
64600;BMP280;6553;48.412;9.514;2023-10-31T07:18:06;71724.63;;;20.42
64600;BMP280;6553;48.412;9.514;2023-10-31T07:20:33;71723.53;;;20.41
64600;BMP280;6553;48.412;9.514;2023-10-31T07:22:59;71720.78;;;20.41
64600;BMP280;6553;48.412;9.514;2023-10-31T07:25:25;71725.25;;;20.40
64600;BMP280;6553;48.412;9.514;2023-10-31T07:27:50;71724.50;;;20.45
64600;BMP280;6553;48.412;9.514;2023-10-31T07:30:16;71730.56;;;20.45
64600;BMP280;6553;48.412;9.514;2023-10-31T07:32:42;71726.72;;;20.44
64600;BMP280;6553;48.412;9.514;2023-10-31T07:35:08;71726.72;;;20.44
64600;BMP280;6553;48.412;9.514;2023-10-31T07:37:33;71724.09;;;20.42
64600;BMP280;6553;48.412;9.514;2023-10-31T07:39:59;71726.31;;;20.41
64600;BMP280;6553;48.412;9.514;2023-10-31T07:42:25;71727.78;;;20.45
64600;BMP280;6553;48.412;9.514;2023-10-31T07:44:51;71732.16;;;20.47
64600;BMP280;6553;48.412;9.514;2023-10-31T07:47:17;71729.38;;;20.47
64600;BMP280;6553;48.412;9.514;2023-10-31T07:49:43;71725.66;;;20.43
64600;BMP280;6553;48.412;9.514;2023-10-31T07:52:08;71728.34;;;20.46
64600;BMP280;6553;48.412;9.514;2023-10-31T07:54:34;71728.34;;;20.46
64600;BMP280;6553;48.412;9.514;2023-10-31T07:57:00;71728.97;;;20.44
64600;BMP280;6553;48.412;9.514;2023-10-31T07:59:25;71727.25;;;20.45
64600;BMP280;6553;48.412;9.514;2023-10-31T08:01:51;71735.44;;;20.47
64600;BMP280;6553;48.412;9.514;2023-10-31T08:04:17;71721.19;;;20.44
64600;BMP280;6553;48.412;9.514;2023-10-31T08:06:43;71723.41;;;20.44
64600;BMP280;6553;48.412;9.514;2023-10-31T08:09:09;71730.69;;;20.43
64600;BMP280;6553;48.412;9.514;2023-10-31T08:11:35;71726.19;;;20.44
64600;BMP280;6553;48.412;9.514;2023-10-31T08:14:01;71726.72;;;20.44
64600;BMP280;6553;48.412;9.514;2023-10-31T08:16:27;71728.34;;;20.46
64600;BMP280;6553;48.412;9.514;2023-10-31T08:18:53;71728.84;;;20.46
64600;BMP280;6553;48.412;9.514;2023-10-31T08:21:19;71729.38;;;20.47
64600;BMP280;6553;48.412;9.514;2023-10-31T08:23:45;71730.97;;;20.48
64600;BMP280;6553;48.412;9.514;2023-10-31T08:26:12;71734.81;;;20.49
64600;BMP280;6553;48.412;9.514;2023-10-31T08:28:38;71734.94;;;20.47
64600;BMP280;6553;48.412;9.514;2023-10-31T08:31:04;71733.22;;;20.48
64600;BMP280;6553;48.412;9.514;2023-10-31T08:33:30;71733.22;;;20.48
64600;BMP280;6553;48.412;9.514;2023-10-31T08:35:56;71733.09;;;20.50
64600;BMP280;6553;48.412;9.514;2023-10-31T08:38:22;71728.84;;;20.46
64600;BMP280;6553;48.412;9.514;2023-10-31T08:40:48;71732.06;;;20.49
64600;BMP280;6553;48.412;9.514;2023-10-31T08:43:14;71732.56;;;20.50
64600;BMP280;6553;48.412;9.514;2023-10-31T08:45:40;71726.63;;;20.47
64600;BMP280;6553;48.412;9.514;2023-10-31T08:48:06;71732.69;;;20.47
64600;BMP280;6553;48.412;9.514;2023-10-31T08:50:32;71733.09;;;20.50
64600;BMP280;6553;48.412;9.514;2023-10-31T08:52:57;71732.56;;;20.50
64600;BMP280;6553;48.412;9.514;2023-10-31T08:55:23;71733.63;;;20.51
64600;BMP280;6553;48.412;9.514;2023-10-31T08:57:49;71730.97;;;20.48
64600;BMP280;6553;48.412;9.514;2023-10-31T09:00:15;71734.16;;;20.51
64600;BMP280;6553;48.412;9.514;2023-10-31T09:02:41;71734.69;;;20.52
64600;BMP280;6553;48.412;9.514;2023-10-31T09:05:08;71733.63;;;20.51
64600;BMP280;6553;48.412;9.514;2023-10-31T09:07:34;71738.00;;;20.52
64600;BMP280;6553;48.412;9.514;2023-10-31T09:09:59;71734.16;;;20.51
64600;BMP280;6553;48.412;9.514;2023-10-31T09:12:25;71737.47;;;20.52
64600;BMP280;6553;48.412;9.514;2023-10-31T09:14:52;71729.69;;;20.52
64600;BMP280;6553;48.412;9.514;2023-10-31T09:17:18;71739.06;;;20.53
64600;BMP280;6553;48.412;9.514;2023-10-31T09:19:44;71732.56;;;20.50
64600;BMP280;6553;48.412;9.514;2023-10-31T09:22:09;71742.25;;;20.57
64600;BMP280;6553;48.412;9.514;2023-10-31T09:24:35;71739.59;;;20.54
64600;BMP280;6553;48.412;9.514;2023-10-31T09:27:01;71738.94;;;20.56
64600;BMP280;6553;48.412;9.514;2023-10-31T09:29:27;71736.72;;;20.57
64600;BMP280;6553;48.412;9.514;2023-10-31T09:31:53;71741.59;;;20.59
64600;BMP280;6553;48.412;9.514;2023-10-31T09:34:19;71742.91;;;20.54
64600;BMP280;6553;48.412;9.514;2023-10-31T09:36:45;71737.88;;;20.55
64600;BMP280;6553;48.412;9.514;2023-10-31T09:39:11;71737.34;;;20.54
64600;BMP280;6553;48.412;9.514;2023-10-31T09:41:37;71740.66;;;20.55
64600;BMP280;6553;48.412;9.514;2023-10-31T09:44:02;71740.00;;;20.57
64600;BMP280;6553;48.412;9.514;2023-10-31T09:46:28;71738.94;;;20.56
64600;BMP280;6553;48.412;9.514;2023-10-31T09:48:56;71744.91;;;20.59
64600;BMP280;6553;48.412;9.514;2023-10-31T09:51:22;71745.03;;;20.57
64600;BMP280;6553;48.412;9.514;2023-10-31T09:53:50;71746.06;;;20.58
64600;BMP280;6553;48.412;9.514;2023-10-31T09:56:17;71746.63;;;20.58
64600;BMP280;6553;48.412;9.514;2023-10-31T09:58:43;71737.75;;;20.58
64600;BMP280;6553;48.412;9.514;2023-10-31T10:01:09;71736.72;;;20.57
64600;BMP280;6553;48.412;9.514;2023-10-31T10:03:37;71745.44;;;20.60
64600;BMP280;6553;48.412;9.514;2023-10-31T10:06:03;71744.50;;;20.56
64600;BMP280;6553;48.412;9.514;2023-10-31T10:08:29;71742.25;;;20.57
64600;BMP280;6553;48.412;9.514;2023-10-31T10:10:55;71733.22;;;20.48
64600;BMP280;6553;48.412;9.514;2023-10-31T10:13:21;71740.66;;;20.55
64600;BMP280;6553;48.412;9.514;2023-10-31T10:15:49;71742.25;;;20.57
64600;BMP280;6553;48.412;9.514;2023-10-31T10:18:29;71740.66;;;20.55
64600;BMP280;6553;48.412;9.514;2023-10-31T10:21:01;71743.94;;;20.55
64600;BMP280;6553;48.412;9.514;2023-10-31T10:23:28;71741.19;;;20.55
64600;BMP280;6553;48.412;9.514;2023-10-31T10:25:56;71732.44;;;20.52
64600;BMP280;6553;48.412;9.514;2023-10-31T10:28:22;71737.88;;;20.55
64600;BMP280;6553;48.412;9.514;2023-10-31T10:30:52;71742.25;;;20.57
64600;BMP280;6553;48.412;9.514;2023-10-31T10:33:20;71742.25;;;20.57
64600;BMP280;6553;48.412;9.514;2023-10-31T10:35:46;71738.94;;;20.56
64600;BMP280;6553;48.412;9.514;2023-10-31T10:38:22;71736.16;;;20.56
64600;BMP280;6553;48.412;9.514;2023-10-31T10:40:48;71737.88;;;20.55
64600;BMP280;6553;48.412;9.514;2023-10-31T10:45:43;71739.59;;;20.54
64600;BMP280;6553;48.412;9.514;2023-10-31T10:48:16;71742.25;;;20.57
64600;BMP280;6553;48.412;9.514;2023-10-31T10:50:45;71745.03;;;20.57
64600;BMP280;6553;48.412;9.514;2023-10-31T10:53:23;71747.16;;;20.59
64600;BMP280;6553;48.412;9.514;2023-10-31T10:55:58;71743.31;;;20.58
64600;BMP280;6553;48.412;9.514;2023-10-31T10:58:41;71741.06;;;20.58
64600;BMP280;6553;48.412;9.514;2023-10-31T11:01:10;71741.72;;;20.56
64600;BMP280;6553;48.412;9.514;2023-10-31T11:03:38;71744.91;;;20.59
64600;BMP280;6553;48.412;9.514;2023-10-31T11:06:06;71743.31;;;20.58
64600;BMP280;6553;48.412;9.514;2023-10-31T11:08:33;71743.31;;;20.58
64600;BMP280;6553;48.412;9.514;2023-10-31T11:10:59;71740.41;;;20.60
64600;BMP280;6553;48.412;9.514;2023-10-31T11:13:26;71742.25;;;20.57
64600;BMP280;6553;48.412;9.514;2023-10-31T11:15:57;71741.06;;;20.58
64600;BMP280;6553;48.412;9.514;2023-10-31T11:18:26;71739.38;;;20.59
64600;BMP280;6553;48.412;9.514;2023-10-31T11:20:52;71743.72;;;20.61
64600;BMP280;6553;48.412;9.514;2023-10-31T11:23:17;71740.00;;;20.57
64600;BMP280;6553;48.412;9.514;2023-10-31T11:25:44;71740.41;;;20.60
64600;BMP280;6553;48.412;9.514;2023-10-31T11:28:17;71739.38;;;20.59
64600;BMP280;6553;48.412;9.514;2023-10-31T11:30:46;71749.78;;;20.61
64600;BMP280;6553;48.412;9.514;2023-10-31T11:33:15;71749.78;;;20.61
64600;BMP280;6553;48.412;9.514;2023-10-31T11:35:42;71752.03;;;20.61
64600;BMP280;6553;48.412;9.514;2023-10-31T11:38:11;71740.94;;;20.61
64600;BMP280;6553;48.412;9.514;2023-10-31T11:40:59;71742.00;;;20.62
64600;BMP280;6553;48.412;9.514;2023-10-31T11:43:25;71743.72;;;20.61
64600;BMP280;6553;48.412;9.514;2023-10-31T11:45:52;71746.41;;;20.63
64600;BMP280;6553;48.412;9.514;2023-10-31T11:48:46;71748.09;;;20.62
64600;BMP280;6553;48.412;9.514;2023-10-31T11:51:13;71745.44;;;20.60
64600;BMP280;6553;48.412;9.514;2023-10-31T11:53:39;71745.44;;;20.60
64600;BMP280;6553;48.412;9.514;2023-10-31T11:56:06;71742.13;;;20.59
64600;BMP280;6553;48.412;9.514;2023-10-31T11:58:34;71739.38;;;20.59
64600;BMP280;6553;48.412;9.514;2023-10-31T12:01:06;71745.44;;;20.60
64600;BMP280;6553;48.412;9.514;2023-10-31T12:03:40;71741.59;;;20.59
64600;BMP280;6553;48.412;9.514;2023-10-31T12:06:07;71742.25;;;20.57
64600;BMP280;6553;48.412;9.514;2023-10-31T12:08:38;71741.06;;;20.58
64600;BMP280;6553;48.412;9.514;2023-10-31T12:11:22;71742.13;;;20.59
64600;BMP280;6553;48.412;9.514;2023-10-31T12:13:58;71753.75;;;20.60
64600;BMP280;6553;48.412;9.514;2023-10-31T12:16:33;71743.31;;;20.58
64600;BMP280;6553;48.412;9.514;2023-10-31T12:19:06;71743.31;;;20.58
64600;BMP280;6553;48.412;9.514;2023-10-31T12:24:11;71747.16;;;20.59
64600;BMP280;6553;48.412;9.514;2023-10-31T12:26:38;71743.31;;;20.58
64600;BMP280;6553;48.412;9.514;2023-10-31T12:29:12;71740.41;;;20.60
64600;BMP280;6553;48.412;9.514;2023-10-31T12:31:47;71745.44;;;20.60
64600;BMP280;6553;48.412;9.514;2023-10-31T12:34:18;71748.63;;;20.63
64600;BMP280;6553;48.412;9.514;2023-10-31T12:36:51;71744.78;;;20.62
64600;BMP280;6553;48.412;9.514;2023-10-31T12:39:23;71742.66;;;20.60
64600;BMP280;6553;48.412;9.514;2023-10-31T12:41:50;71744.78;;;20.62
64600;BMP280;6553;48.412;9.514;2023-10-31T12:44:24;71743.72;;;20.61
64600;BMP280;6553;48.412;9.514;2023-10-31T12:46:51;71747.56;;;20.62
64600;BMP280;6553;48.412;9.514;2023-10-31T12:49:19;71743.09;;;20.63
64600;BMP280;6553;48.412;9.514;2023-10-31T12:52:01;71750.88;;;20.62
64600;BMP280;6553;48.412;9.514;2023-10-31T12:54:32;71743.09;;;20.63
64600;BMP280;6553;48.412;9.514;2023-10-31T12:57:03;71751.41;;;20.63
64600;BMP280;6553;48.412;9.514;2023-10-31T12:59:31;71754.19;;;20.63
64600;BMP280;6553;48.412;9.514;2023-10-31T13:01:57;71751.50;;;20.60
64600;BMP280;6553;48.412;9.514;2023-10-31T13:04:31;71751.41;;;20.63
64600;BMP280;6553;48.412;9.514;2023-10-31T13:07:04;71744.25;;;20.61
64600;BMP280;6553;48.412;9.514;2023-10-31T13:09:38;71740.41;;;20.60
64600;BMP280;6553;48.412;9.514;2023-10-31T13:12:09;71737.75;;;20.58
64600;BMP280;6553;48.412;9.514;2023-10-31T13:14:36;71738.84;;;20.59
64600;BMP280;6553;48.412;9.514;2023-10-31T13:17:03;71741.06;;;20.58
64600;BMP280;6553;48.412;9.514;2023-10-31T13:19:29;71741.72;;;20.56
64600;BMP280;6553;48.412;9.514;2023-10-31T13:21:55;71741.72;;;20.56
64600;BMP280;6553;48.412;9.514;2023-10-31T13:24:21;71743.84;;;20.58
64600;BMP280;6553;48.412;9.514;2023-10-31T13:26:47;71741.59;;;20.59
64600;BMP280;6553;48.412;9.514;2023-10-31T13:29:18;71732.88;;;20.55
64600;BMP280;6553;48.412;9.514;2023-10-31T13:31:43;71746.72;;;20.55
64600;BMP280;6553;48.412;9.514;2023-10-31T13:34:09;71744.91;;;20.59
64600;BMP280;6553;48.412;9.514;2023-10-31T13:36:36;71740.00;;;20.57
64600;BMP280;6553;48.412;9.514;2023-10-31T13:39:02;71740.53;;;20.58
64600;BMP280;6553;48.412;9.514;2023-10-31T13:41:28;71737.22;;;20.57
64600;BMP280;6553;48.412;9.514;2023-10-31T13:43:54;71742.25;;;20.57
64600;BMP280;6553;48.412;9.514;2023-10-31T13:46:20;71747.69;;;20.59
64600;BMP280;6553;48.412;9.514;2023-10-31T13:48:45;71741.72;;;20.56
64600;BMP280;6553;48.412;9.514;2023-10-31T13:51:12;71747.16;;;20.59
64600;BMP280;6553;48.412;9.514;2023-10-31T13:53:38;71743.84;;;20.58
64600;BMP280;6553;48.412;9.514;2023-10-31T13:56:04;71744.25;;;20.61
64600;BMP280;6553;48.412;9.514;2023-10-31T13:58:29;71742.13;;;20.59
64600;BMP280;6553;48.412;9.514;2023-10-31T14:00:55;71743.72;;;20.61
64600;BMP280;6553;48.412;9.514;2023-10-31T14:03:21;71741.31;;;20.53
64600;BMP280;6553;48.412;9.514;2023-10-31T14:05:47;71741.06;;;20.58
64600;BMP280;6553;48.412;9.514;2023-10-31T14:08:13;71745.31;;;20.62
64600;BMP280;6553;48.412;9.514;2023-10-31T14:10:39;71747.16;;;20.59
64600;BMP280;6553;48.412;9.514;2023-10-31T14:13:05;71746.47;;;20.61
64600;BMP280;6553;48.412;9.514;2023-10-31T14:15:31;71749.78;;;20.61
64600;BMP280;6553;48.412;9.514;2023-10-31T14:17:58;71747.16;;;20.59
64600;BMP280;6553;48.412;9.514;2023-10-31T14:20:24;71742.66;;;20.60
64600;BMP280;6553;48.412;9.514;2023-10-31T14:22:50;71745.44;;;20.60
64600;BMP280;6553;48.412;9.514;2023-10-31T14:25:16;71748.75;;;20.60